sensor_id;sensor_type;location;lat;lon;timestamp;P1;durP1;ratioP1;P2;durP2;ratioP2
8113;SDS011;4099;52.684;9.918;2023-09-19T00:01:06;21.33;;;20.37;;
8113;SDS011;4099;52.684;9.918;2023-09-19T00:06:08;29.60;;;28.30;;
8113;SDS011;4099;52.684;9.918;2023-09-19T00:11:12;35.80;;;34.17;;
8113;SDS011;4099;52.684;9.918;2023-09-19T00:16:14;37.90;;;36.27;;
8113;SDS011;4099;52.684;9.918;2023-09-19T00:21:16;30.27;;;28.83;;
8113;SDS011;4099;52.684;9.918;2023-09-19T00:26:21;44.23;;;42.27;;
8113;SDS011;4099;52.684;9.918;2023-09-19T00:31:23;28.33;;;26.93;;
8113;SDS011;4099;52.684;9.918;2023-09-19T00:36:25;36.73;;;35.00;;
8113;SDS011;4099;52.684;9.918;2023-09-19T00:41:30;51.87;;;49.67;;
8113;SDS011;4099;52.684;9.918;2023-09-19T00:46:32;56.53;;;54.00;;
8113;SDS011;4099;52.684;9.918;2023-09-19T00:51:34;52.63;;;50.33;;
8113;SDS011;4099;52.684;9.918;2023-09-19T00:56:38;59.93;;;57.30;;
8113;SDS011;4099;52.684;9.918;2023-09-19T01:01:41;58.67;;;55.97;;
8113;SDS011;4099;52.684;9.918;2023-09-19T01:06:45;60.20;;;57.30;;
8113;SDS011;4099;52.684;9.918;2023-09-19T01:11:55;60.93;;;58.10;;
8113;SDS011;4099;52.684;9.918;2023-09-19T01:17:03;65.27;;;62.27;;
8113;SDS011;4099;52.684;9.918;2023-09-19T01:22:13;61.23;;;58.57;;
8113;SDS011;4099;52.684;9.918;2023-09-19T01:27:30;59.70;;;56.87;;
8113;SDS011;4099;52.684;9.918;2023-09-19T01:32:53;59.90;;;57.13;;
8113;SDS011;4099;52.684;9.918;2023-09-19T01:37:56;57.67;;;54.97;;
8113;SDS011;4099;52.684;9.918;2023-09-19T01:43:02;72.97;;;69.63;;
8113;SDS011;4099;52.684;9.918;2023-09-19T01:48:14;58.43;;;55.37;;
8113;SDS011;4099;52.684;9.918;2023-09-19T01:53:25;51.43;;;48.73;;
8113;SDS011;4099;52.684;9.918;2023-09-19T01:58:31;61.43;;;58.47;;
8113;SDS011;4099;52.684;9.918;2023-09-19T02:03:38;48.13;;;45.77;;
8113;SDS011;4099;52.684;9.918;2023-09-19T02:08:41;57.27;;;54.60;;
8113;SDS011;4099;52.684;9.918;2023-09-19T02:13:43;45.40;;;42.97;;
8113;SDS011;4099;52.684;9.918;2023-09-19T02:18:47;42.27;;;40.03;;
8113;SDS011;4099;52.684;9.918;2023-09-19T02:23:49;45.10;;;42.83;;
8113;SDS011;4099;52.684;9.918;2023-09-19T02:28:51;58.00;;;55.17;;
8113;SDS011;4099;52.684;9.918;2023-09-19T02:33:55;59.53;;;56.53;;
8113;SDS011;4099;52.684;9.918;2023-09-19T02:38:57;63.40;;;60.20;;
8113;SDS011;4099;52.684;9.918;2023-09-19T02:43:59;63.67;;;60.57;;
8113;SDS011;4099;52.684;9.918;2023-09-19T02:49:05;51.30;;;48.50;;
8113;SDS011;4099;52.684;9.918;2023-09-19T02:54:07;55.60;;;52.60;;
8113;SDS011;4099;52.684;9.918;2023-09-19T02:59:10;63.30;;;60.10;;
8113;SDS011;4099;52.684;9.918;2023-09-19T03:04:13;62.53;;;59.23;;
8113;SDS011;4099;52.684;9.918;2023-09-19T03:09:17;30.73;;;28.83;;
8113;SDS011;4099;52.684;9.918;2023-09-19T03:14:19;31.00;;;29.17;;
8113;SDS011;4099;52.684;9.918;2023-09-19T03:19:24;28.83;;;27.30;;
8113;SDS011;4099;52.684;9.918;2023-09-19T03:24:28;28.10;;;26.37;;
8113;SDS011;4099;52.684;9.918;2023-09-19T03:29:32;19.73;;;18.40;;
8113;SDS011;4099;52.684;9.918;2023-09-19T03:34:37;27.07;;;25.30;;
8113;SDS011;4099;52.684;9.918;2023-09-19T03:39:42;19.23;;;17.73;;
8113;SDS011;4099;52.684;9.918;2023-09-19T03:44:45;21.40;;;20.00;;
8113;SDS011;4099;52.684;9.918;2023-09-19T03:49:48;17.63;;;16.43;;
8113;SDS011;4099;52.684;9.918;2023-09-19T03:54:50;26.23;;;24.73;;
8113;SDS011;4099;52.684;9.918;2023-09-19T03:59:52;24.00;;;22.27;;
8113;SDS011;4099;52.684;9.918;2023-09-19T04:04:55;29.63;;;27.70;;
8113;SDS011;4099;52.684;9.918;2023-09-19T04:09:57;24.70;;;23.30;;
8113;SDS011;4099;52.684;9.918;2023-09-19T04:14:59;17.30;;;16.00;;
8113;SDS011;4099;52.684;9.918;2023-09-19T04:20:03;13.67;;;12.80;;
8113;SDS011;4099;52.684;9.918;2023-09-19T04:25:08;16.83;;;15.33;;
8113;SDS011;4099;52.684;9.918;2023-09-19T04:30:10;18.97;;;17.57;;
8113;SDS011;4099;52.684;9.918;2023-09-19T04:35:14;20.77;;;19.33;;
8113;SDS011;4099;52.684;9.918;2023-09-19T04:40:16;16.37;;;14.97;;
8113;SDS011;4099;52.684;9.918;2023-09-19T04:45:19;19.07;;;17.60;;
8113;SDS011;4099;52.684;9.918;2023-09-19T04:50:23;19.63;;;18.20;;
8113;SDS011;4099;52.684;9.918;2023-09-19T04:55:26;17.43;;;16.20;;
8113;SDS011;4099;52.684;9.918;2023-09-19T05:00:30;17.93;;;16.43;;
8113;SDS011;4099;52.684;9.918;2023-09-19T05:05:36;17.60;;;15.97;;
8113;SDS011;4099;52.684;9.918;2023-09-19T05:10:39;18.87;;;17.37;;
8113;SDS011;4099;52.684;9.918;2023-09-19T05:15:41;16.33;;;14.97;;
8113;SDS011;4099;52.684;9.918;2023-09-19T05:20:44;26.67;;;24.77;;
8113;SDS011;4099;52.684;9.918;2023-09-19T05:25:46;24.27;;;22.53;;
8113;SDS011;4099;52.684;9.918;2023-09-19T05:30:48;21.70;;;20.20;;
8113;SDS011;4099;52.684;9.918;2023-09-19T05:35:52;22.47;;;20.73;;
8113;SDS011;4099;52.684;9.918;2023-09-19T05:40:54;24.53;;;22.57;;
8113;SDS011;4099;52.684;9.918;2023-09-19T05:45:56;21.03;;;19.40;;
8113;SDS011;4099;52.684;9.918;2023-09-19T05:51:03;27.10;;;25.30;;
8113;SDS011;4099;52.684;9.918;2023-09-19T05:56:05;18.03;;;16.37;;
8113;SDS011;4099;52.684;9.918;2023-09-19T06:01:07;16.37;;;15.13;;
8113;SDS011;4099;52.684;9.918;2023-09-19T06:06:11;18.13;;;16.43;;
8113;SDS011;4099;52.684;9.918;2023-09-19T06:11:13;17.53;;;15.70;;
8113;SDS011;4099;52.684;9.918;2023-09-19T06:16:14;18.23;;;16.63;;
8113;SDS011;4099;52.684;9.918;2023-09-19T06:21:21;18.37;;;16.43;;
8113;SDS011;4099;52.684;9.918;2023-09-19T06:26:23;22.10;;;20.40;;
8113;SDS011;4099;52.684;9.918;2023-09-19T06:31:27;21.40;;;20.03;;
8113;SDS011;4099;52.684;9.918;2023-09-19T06:36:30;20.47;;;18.60;;
8113;SDS011;4099;52.684;9.918;2023-09-19T06:41:32;25.47;;;23.70;;
8113;SDS011;4099;52.684;9.918;2023-09-19T06:46:40;21.60;;;20.07;;
8113;SDS011;4099;52.684;9.918;2023-09-19T06:51:48;27.43;;;25.77;;
8113;SDS011;4099;52.684;9.918;2023-09-19T06:56:50;26.13;;;24.23;;
8113;SDS011;4099;52.684;9.918;2023-09-19T07:01:52;28.40;;;26.60;;
8113;SDS011;4099;52.684;9.918;2023-09-19T07:06:55;31.67;;;29.47;;
8113;SDS011;4099;52.684;9.918;2023-09-19T07:11:57;31.80;;;29.97;;
8113;SDS011;4099;52.684;9.918;2023-09-19T07:16:59;26.90;;;24.90;;
8113;SDS011;4099;52.684;9.918;2023-09-19T07:22:04;30.53;;;28.77;;
8113;SDS011;4099;52.684;9.918;2023-09-19T07:27:10;27.83;;;25.80;;
8113;SDS011;4099;52.684;9.918;2023-09-19T07:32:12;22.60;;;20.80;;
8113;SDS011;4099;52.684;9.918;2023-09-19T07:37:15;24.50;;;22.67;;
8113;SDS011;4099;52.684;9.918;2023-09-19T07:42:17;19.73;;;18.17;;
8113;SDS011;4099;52.684;9.918;2023-09-19T07:47:19;20.37;;;18.77;;
8113;SDS011;4099;52.684;9.918;2023-09-19T07:52:22;20.37;;;18.87;;
8113;SDS011;4099;52.684;9.918;2023-09-19T07:57:24;22.43;;;20.90;;
8113;SDS011;4099;52.684;9.918;2023-09-19T08:02:26;21.30;;;19.50;;
8113;SDS011;4099;52.684;9.918;2023-09-19T08:07:29;18.20;;;16.80;;
8113;SDS011;4099;52.684;9.918;2023-09-19T08:12:31;21.30;;;19.57;;
8113;SDS011;4099;52.684;9.918;2023-09-19T08:17:33;21.43;;;20.00;;
8113;SDS011;4099;52.684;9.918;2023-09-19T08:22:38;17.77;;;16.33;;
8113;SDS011;4099;52.684;9.918;2023-09-19T08:27:40;17.07;;;15.50;;
8113;SDS011;4099;52.684;9.918;2023-09-19T08:32:47;20.03;;;18.37;;
8113;SDS011;4099;52.684;9.918;2023-09-19T08:37:51;19.67;;;18.17;;
8113;SDS011;4099;52.684;9.918;2023-09-19T08:42:53;21.10;;;19.50;;
8113;SDS011;4099;52.684;9.918;2023-09-19T08:47:56;25.23;;;22.97;;
8113;SDS011;4099;52.684;9.918;2023-09-19T08:53:10;24.27;;;22.73;;
8113;SDS011;4099;52.684;9.918;2023-09-19T08:58:15;22.70;;;21.20;;
8113;SDS011;4099;52.684;9.918;2023-09-19T09:03:21;24.80;;;22.80;;
8113;SDS011;4099;52.684;9.918;2023-09-19T09:08:26;26.63;;;24.97;;
8113;SDS011;4099;52.684;9.918;2023-09-19T09:13:29;23.07;;;21.40;;
8113;SDS011;4099;52.684;9.918;2023-09-19T09:18:34;30.60;;;28.80;;
8113;SDS011;4099;52.684;9.918;2023-09-19T09:23:37;25.70;;;24.13;;
8113;SDS011;4099;52.684;9.918;2023-09-19T09:28:45;27.20;;;25.60;;
8113;SDS011;4099;52.684;9.918;2023-09-19T09:33:53;28.40;;;26.57;;
8113;SDS011;4099;52.684;9.918;2023-09-19T09:38:57;27.03;;;25.50;;
8113;SDS011;4099;52.684;9.918;2023-09-19T09:43:59;34.87;;;33.03;;
8113;SDS011;4099;52.684;9.918;2023-09-19T09:49:23;40.13;;;37.93;;
8113;SDS011;4099;52.684;9.918;2023-09-19T09:54:29;39.70;;;37.60;;
8113;SDS011;4099;52.684;9.918;2023-09-19T09:59:44;38.50;;;36.47;;
8113;SDS011;4099;52.684;9.918;2023-09-19T10:04:47;37.33;;;35.27;;
8113;SDS011;4099;52.684;9.918;2023-09-19T10:10:10;31.87;;;30.17;;
8113;SDS011;4099;52.684;9.918;2023-09-19T10:15:17;33.40;;;31.50;;
8113;SDS011;4099;52.684;9.918;2023-09-19T10:20:21;36.73;;;34.67;;
8113;SDS011;4099;52.684;9.918;2023-09-19T10:25:40;29.60;;;27.90;;
8113;SDS011;4099;52.684;9.918;2023-09-19T10:30:43;30.73;;;29.03;;
8113;SDS011;4099;52.684;9.918;2023-09-19T10:35:47;26.37;;;24.77;;
8113;SDS011;4099;52.684;9.918;2023-09-19T10:40:53;25.13;;;23.53;;
8113;SDS011;4099;52.684;9.918;2023-09-19T10:46:00;20.20;;;18.73;;
8113;SDS011;4099;52.684;9.918;2023-09-19T10:51:06;17.10;;;15.90;;
8113;SDS011;4099;52.684;9.918;2023-09-19T10:56:13;18.50;;;17.23;;
8113;SDS011;4099;52.684;9.918;2023-09-19T11:01:20;16.97;;;15.97;;
8113;SDS011;4099;52.684;9.918;2023-09-19T11:06:22;16.60;;;15.50;;
8113;SDS011;4099;52.684;9.918;2023-09-19T11:11:42;16.30;;;15.10;;
8113;SDS011;4099;52.684;9.918;2023-09-19T11:28:31;19.47;;;17.80;;
8113;SDS011;4099;52.684;9.918;2023-09-19T11:33:39;14.60;;;13.50;;
8113;SDS011;4099;52.684;9.918;2023-09-19T11:38:59;20.90;;;19.50;;
8113;SDS011;4099;52.684;9.918;2023-09-19T11:49:36;16.30;;;14.90;;
8113;SDS011;4099;52.684;9.918;2023-09-19T11:54:42;10.70;;;9.60;;
8113;SDS011;4099;52.684;9.918;2023-09-19T11:59:48;11.47;;;10.43;;
8113;SDS011;4099;52.684;9.918;2023-09-19T12:04:53;10.07;;;9.17;;
8113;SDS011;4099;52.684;9.918;2023-09-19T12:10:02;10.27;;;9.40;;
8113;SDS011;4099;52.684;9.918;2023-09-19T12:15:07;9.07;;;8.27;;
8113;SDS011;4099;52.684;9.918;2023-09-19T12:20:11;12.13;;;11.20;;
8113;SDS011;4099;52.684;9.918;2023-09-19T12:25:14;11.43;;;10.33;;
8113;SDS011;4099;52.684;9.918;2023-09-19T12:30:18;11.43;;;10.43;;
8113;SDS011;4099;52.684;9.918;2023-09-19T12:35:27;11.50;;;10.30;;
8113;SDS011;4099;52.684;9.918;2023-09-19T12:40:30;10.93;;;9.90;;
8113;SDS011;4099;52.684;9.918;2023-09-19T12:45:37;13.63;;;12.43;;
8113;SDS011;4099;52.684;9.918;2023-09-19T12:56:06;12.47;;;9.63;;
8113;SDS011;4099;52.684;9.918;2023-09-19T13:01:15;11.07;;;10.07;;
8113;SDS011;4099;52.684;9.918;2023-09-19T13:06:34;12.70;;;11.73;;
8113;SDS011;4099;52.684;9.918;2023-09-19T13:11:40;11.90;;;10.90;;
8113;SDS011;4099;52.684;9.918;2023-09-19T13:16:58;10.00;;;8.37;;
8113;SDS011;4099;52.684;9.918;2023-09-19T13:22:04;11.13;;;9.20;;
8113;SDS011;4099;52.684;9.918;2023-09-19T13:27:08;12.33;;;11.33;;
8113;SDS011;4099;52.684;9.918;2023-09-19T13:32:12;10.40;;;9.60;;
8113;SDS011;4099;52.684;9.918;2023-09-19T13:37:14;13.97;;;12.73;;
8113;SDS011;4099;52.684;9.918;2023-09-19T13:42:17;14.90;;;13.80;;
8113;SDS011;4099;52.684;9.918;2023-09-19T13:47:23;10.83;;;9.83;;
8113;SDS011;4099;52.684;9.918;2023-09-19T13:52:27;11.50;;;9.60;;
8113;SDS011;4099;52.684;9.918;2023-09-19T13:57:30;10.20;;;9.40;;
8113;SDS011;4099;52.684;9.918;2023-09-19T14:02:35;12.27;;;10.27;;
8113;SDS011;4099;52.684;9.918;2023-09-19T14:07:36;13.73;;;12.83;;
8113;SDS011;4099;52.684;9.918;2023-09-19T14:12:38;14.40;;;13.40;;
8113;SDS011;4099;52.684;9.918;2023-09-19T14:17:42;11.10;;;9.60;;
8113;SDS011;4099;52.684;9.918;2023-09-19T14:22:45;10.23;;;9.33;;
8113;SDS011;4099;52.684;9.918;2023-09-19T14:27:47;12.37;;;11.23;;
8113;SDS011;4099;52.684;9.918;2023-09-19T14:32:50;11.63;;;10.63;;
8113;SDS011;4099;52.684;9.918;2023-09-19T14:37:55;11.73;;;10.83;;
8113;SDS011;4099;52.684;9.918;2023-09-19T14:42:57;13.47;;;11.77;;
8113;SDS011;4099;52.684;9.918;2023-09-19T14:48:00;10.47;;;8.60;;
8113;SDS011;4099;52.684;9.918;2023-09-19T14:53:05;9.37;;;8.30;;
8113;SDS011;4099;52.684;9.918;2023-09-19T14:58:10;12.70;;;11.60;;
8113;SDS011;4099;52.684;9.918;2023-09-19T15:03:14;13.10;;;12.30;;
8113;SDS011;4099;52.684;9.918;2023-09-19T15:08:15;15.80;;;14.53;;
8113;SDS011;4099;52.684;9.918;2023-09-19T15:13:17;16.03;;;14.70;;
8113;SDS011;4099;52.684;9.918;2023-09-19T15:18:21;15.03;;;14.13;;
8113;SDS011;4099;52.684;9.918;2023-09-19T15:23:23;16.23;;;14.97;;
8113;SDS011;4099;52.684;9.918;2023-09-19T15:28:25;23.70;;;22.40;;
8113;SDS011;4099;52.684;9.918;2023-09-19T15:33:29;19.97;;;18.73;;
8113;SDS011;4099;52.684;9.918;2023-09-19T15:38:32;20.77;;;19.57;;
8113;SDS011;4099;52.684;9.918;2023-09-19T15:43:57;23.87;;;22.40;;
8113;SDS011;4099;52.684;9.918;2023-09-19T15:49:02;23.90;;;22.60;;
8113;SDS011;4099;52.684;9.918;2023-09-19T15:54:07;36.20;;;34.13;;
8113;SDS011;4099;52.684;9.918;2023-09-19T15:59:09;23.70;;;22.33;;
8113;SDS011;4099;52.684;9.918;2023-09-19T16:04:13;31.10;;;29.37;;
8113;SDS011;4099;52.684;9.918;2023-09-19T16:09:17;28.50;;;26.90;;
8113;SDS011;4099;52.684;9.918;2023-09-19T16:14:18;32.20;;;30.63;;
8113;SDS011;4099;52.684;9.918;2023-09-19T16:19:22;30.50;;;28.80;;
8113;SDS011;4099;52.684;9.918;2023-09-19T16:24:24;25.00;;;23.47;;
8113;SDS011;4099;52.684;9.918;2023-09-19T16:29:26;25.07;;;23.67;;
8113;SDS011;4099;52.684;9.918;2023-09-19T16:34:29;27.70;;;26.03;;
8113;SDS011;4099;52.684;9.918;2023-09-19T16:39:31;24.93;;;23.43;;
8113;SDS011;4099;52.684;9.918;2023-09-19T16:44:34;26.07;;;24.63;;
8113;SDS011;4099;52.684;9.918;2023-09-19T16:49:40;25.97;;;24.53;;
8113;SDS011;4099;52.684;9.918;2023-09-19T16:54:42;22.00;;;20.57;;
8113;SDS011;4099;52.684;9.918;2023-09-19T16:59:44;22.87;;;21.67;;
8113;SDS011;4099;52.684;9.918;2023-09-19T17:04:47;23.80;;;22.50;;
8113;SDS011;4099;52.684;9.918;2023-09-19T17:09:52;27.63;;;26.33;;
8113;SDS011;4099;52.684;9.918;2023-09-19T17:14:55;24.03;;;22.63;;
8113;SDS011;4099;52.684;9.918;2023-09-19T17:19:59;23.40;;;22.00;;
8113;SDS011;4099;52.684;9.918;2023-09-19T17:25:00;29.20;;;27.63;;
8113;SDS011;4099;52.684;9.918;2023-09-19T17:30:03;26.23;;;24.93;;
8113;SDS011;4099;52.684;9.918;2023-09-19T17:35:07;29.23;;;27.63;;
8113;SDS011;4099;52.684;9.918;2023-09-19T17:40:10;25.07;;;23.77;;
8113;SDS011;4099;52.684;9.918;2023-09-19T17:45:13;27.93;;;26.33;;
8113;SDS011;4099;52.684;9.918;2023-09-19T17:50:17;25.47;;;24.00;;
8113;SDS011;4099;52.684;9.918;2023-09-19T17:55:19;24.70;;;23.47;;
8113;SDS011;4099;52.684;9.918;2023-09-19T18:00:20;32.43;;;30.73;;
8113;SDS011;4099;52.684;9.918;2023-09-19T18:05:24;28.70;;;27.20;;
8113;SDS011;4099;52.684;9.918;2023-09-19T18:10:26;32.73;;;31.13;;
8113;SDS011;4099;52.684;9.918;2023-09-19T18:15:28;31.57;;;29.87;;
8113;SDS011;4099;52.684;9.918;2023-09-19T18:20:37;28.37;;;26.93;;
8113;SDS011;4099;52.684;9.918;2023-09-19T18:25:40;36.97;;;35.17;;
8113;SDS011;4099;52.684;9.918;2023-09-19T18:30:42;37.07;;;35.20;;
8113;SDS011;4099;52.684;9.918;2023-09-19T18:35:45;29.20;;;27.80;;
8113;SDS011;4099;52.684;9.918;2023-09-19T18:40:47;33.33;;;31.63;;
8113;SDS011;4099;52.684;9.918;2023-09-19T18:45:56;41.90;;;39.80;;
8113;SDS011;4099;52.684;9.918;2023-09-19T18:51:04;35.17;;;33.43;;
8113;SDS011;4099;52.684;9.918;2023-09-19T18:56:07;37.73;;;35.83;;
8113;SDS011;4099;52.684;9.918;2023-09-19T19:01:12;32.30;;;30.40;;
8113;SDS011;4099;52.684;9.918;2023-09-19T19:06:17;42.30;;;39.90;;
8113;SDS011;4099;52.684;9.918;2023-09-19T19:11:21;40.40;;;38.50;;
8113;SDS011;4099;52.684;9.918;2023-09-19T19:16:25;33.57;;;31.83;;
8113;SDS011;4099;52.684;9.918;2023-09-19T19:21:30;39.27;;;36.97;;
8113;SDS011;4099;52.684;9.918;2023-09-19T19:26:32;41.77;;;39.80;;
8113;SDS011;4099;52.684;9.918;2023-09-19T19:31:35;37.40;;;35.70;;
8113;SDS011;4099;52.684;9.918;2023-09-19T19:36:38;36.87;;;35.07;;
8113;SDS011;4099;52.684;9.918;2023-09-19T19:41:40;38.97;;;36.97;;
8113;SDS011;4099;52.684;9.918;2023-09-19T19:46:43;42.50;;;40.50;;
8113;SDS011;4099;52.684;9.918;2023-09-19T19:51:47;36.70;;;34.80;;
8113;SDS011;4099;52.684;9.918;2023-09-19T19:56:50;32.73;;;31.07;;
8113;SDS011;4099;52.684;9.918;2023-09-19T20:01:51;38.93;;;37.03;;
8113;SDS011;4099;52.684;9.918;2023-09-19T20:06:55;31.97;;;30.53;;
8113;SDS011;4099;52.684;9.918;2023-09-19T20:11:57;17.93;;;16.93;;
8113;SDS011;4099;52.684;9.918;2023-09-19T20:16:58;26.93;;;25.63;;
8113;SDS011;4099;52.684;9.918;2023-09-19T20:22:02;20.77;;;19.67;;
8113;SDS011;4099;52.684;9.918;2023-09-19T20:27:09;21.63;;;20.53;;
8113;SDS011;4099;52.684;9.918;2023-09-19T20:32:13;16.33;;;15.63;;
8113;SDS011;4099;52.684;9.918;2023-09-19T20:37:17;19.23;;;18.03;;
8113;SDS011;4099;52.684;9.918;2023-09-19T20:42:19;16.10;;;15.10;;
8113;SDS011;4099;52.684;9.918;2023-09-19T20:47:23;16.30;;;15.40;;
8113;SDS011;4099;52.684;9.918;2023-09-19T20:52:27;12.37;;;11.57;;
8113;SDS011;4099;52.684;9.918;2023-09-19T20:57:29;13.47;;;12.73;;
8113;SDS011;4099;52.684;9.918;2023-09-19T21:02:30;12.43;;;11.70;;
8113;SDS011;4099;52.684;9.918;2023-09-19T21:07:34;10.20;;;9.50;;
8113;SDS011;4099;52.684;9.918;2023-09-19T21:12:35;10.00;;;9.30;;
8113;SDS011;4099;52.684;9.918;2023-09-19T21:17:37;14.37;;;13.50;;
8113;SDS011;4099;52.684;9.918;2023-09-19T21:22:44;9.50;;;9.00;;
8113;SDS011;4099;52.684;9.918;2023-09-19T21:27:45;12.07;;;11.27;;
8113;SDS011;4099;52.684;9.918;2023-09-19T21:32:47;8.57;;;8.03;;
8113;SDS011;4099;52.684;9.918;2023-09-19T21:37:51;12.00;;;11.10;;
8113;SDS011;4099;52.684;9.918;2023-09-19T21:42:53;11.50;;;10.83;;
8113;SDS011;4099;52.684;9.918;2023-09-19T21:47:54;9.20;;;8.60;;
8113;SDS011;4099;52.684;9.918;2023-09-19T21:52:58;9.80;;;9.30;;
8113;SDS011;4099;52.684;9.918;2023-09-19T21:58:00;8.13;;;7.63;;
8113;SDS011;4099;52.684;9.918;2023-09-19T22:03:02;9.27;;;8.60;;
8113;SDS011;4099;52.684;9.918;2023-09-19T22:08:08;9.17;;;8.57;;
8113;SDS011;4099;52.684;9.918;2023-09-19T22:13:10;9.20;;;8.40;;
8113;SDS011;4099;52.684;9.918;2023-09-19T22:18:12;10.53;;;9.73;;
8113;SDS011;4099;52.684;9.918;2023-09-19T22:23:20;8.50;;;7.90;;
8113;SDS011;4099;52.684;9.918;2023-09-19T22:28:29;8.00;;;7.40;;
8113;SDS011;4099;52.684;9.918;2023-09-19T22:33:35;9.40;;;8.70;;
8113;SDS011;4099;52.684;9.918;2023-09-19T22:38:40;8.73;;;7.93;;
8113;SDS011;4099;52.684;9.918;2023-09-19T22:43:43;8.60;;;7.90;;
8113;SDS011;4099;52.684;9.918;2023-09-19T22:48:48;10.73;;;10.07;;
8113;SDS011;4099;52.684;9.918;2023-09-19T22:53:52;12.03;;;11.03;;
8113;SDS011;4099;52.684;9.918;2023-09-19T22:58:59;17.50;;;16.60;;
8113;SDS011;4099;52.684;9.918;2023-09-19T23:04:01;16.87;;;15.77;;
8113;SDS011;4099;52.684;9.918;2023-09-19T23:09:17;18.23;;;17.33;;
8113;SDS011;4099;52.684;9.918;2023-09-19T23:14:22;14.37;;;13.67;;
8113;SDS011;4099;52.684;9.918;2023-09-19T23:19:33;15.80;;;14.73;;
8113;SDS011;4099;52.684;9.918;2023-09-19T23:24:36;19.67;;;18.67;;
8113;SDS011;4099;52.684;9.918;2023-09-19T23:29:41;25.67;;;24.37;;
8113;SDS011;4099;52.684;9.918;2023-09-19T23:34:43;22.33;;;21.13;;
8113;SDS011;4099;52.684;9.918;2023-09-19T23:39:49;22.60;;;21.50;;
8113;SDS011;4099;52.684;9.918;2023-09-19T23:44:51;21.10;;;19.90;;
8113;SDS011;4099;52.684;9.918;2023-09-19T23:49:55;23.07;;;21.77;;
8113;SDS011;4099;52.684;9.918;2023-09-19T23:54:58;22.03;;;20.83;;
